Time;durP1;ratioP1;P1;durP2;ratioP2;P2;SDS_P1;SDS_P2;PMS_P1;PMS_P2;Temp;Humidity;BMP_temperature;BMP_pressure;BME280_temperature;BME280_humidity;BME280_pressure;Samples;Min_cycle;Max_cycle;Signal;HPM_P1;HPM_P2
2021/05/13 00:00:13;;;;;;;8.10;2.53;;;10.10;94.50;;;;;;6214768;23;20012;-67
2021/05/13 00:02:40;;;;;;;6.03;2.50;;;10.00;94.60;;;;;;6213377;23;20326;-67
2021/05/13 00:05:07;;;;;;;4.93;2.50;;;10.00;94.70;;;;;;6214101;23;20538;-67
2021/05/13 00:07:32;;;;;;;7.35;2.60;;;10.00;94.70;;;;;;6214674;23;20426;-67
2021/05/13 00:09:58;;;;;;;4.57;2.50;;;10.00;94.70;;;;;;6212556;23;20015;-67
2021/05/13 00:13:07;;;;;;;3.63;2.30;;;9.90;94.80;;;;;;6215138;23;20004;-66
2021/05/13 00:15:22;;;;;;;8.27;2.72;;;9.90;94.80;;;;;;6203626;23;20011;-67
2021/05/13 00:17:52;;;;;;;6.57;2.53;;;9.90;94.90;;;;;;6213936;23;19997;-67
2021/05/13 00:20:24;;;;;;;5.53;2.85;;;9.80;94.90;;;;;;6214599;23;20019;-67
2021/05/13 00:22:49;;;;;;;;;;;9.80;94.90;;;;;;6215438;23;20377;-68
2021/05/13 00:25:16;;;;;;;4.72;2.40;;;9.80;94.90;;;;;;6213908;23;19923;-67
2021/05/13 00:27:41;;;;;;;7.30;2.80;;;9.80;94.90;;;;;;6214487;23;20003;-66
2021/05/13 00:30:08;;;;;;;4.85;2.55;;;9.70;95.00;;;;;;6214794;23;20000;-66
2021/05/13 00:32:37;;;;;;;7.38;2.95;;;9.70;95.10;;;;;;6213770;23;20001;-67
2021/05/13 00:35:05;;;;;;;5.70;2.30;;;9.70;95.20;;;;;;6214649;23;20004;-67
2021/05/13 00:37:31;;;;;;;5.40;2.35;;;9.70;95.30;;;;;;6214336;23;20835;-68
2021/05/13 00:39:56;;;;;;;6.20;2.28;;;9.70;95.40;;;;;;6213668;23;20039;-68
2021/05/13 00:42:22;;;;;;;5.75;2.22;;;9.70;95.40;;;;;;6214657;23;19997;-68
2021/05/13 00:44:47;;;;;;;4.20;2.65;;;9.60;95.40;;;;;;6214671;23;20005;-68
2021/05/13 00:47:13;;;;;;;6.88;2.90;;;9.60;95.50;;;;;;6213654;23;20350;-67
2021/05/13 00:49:40;;;;;;;7.25;2.95;;;9.60;95.60;;;;;;6214402;23;20027;-66
2021/05/13 00:52:10;;;;;;;6.00;2.90;;;9.70;95.80;;;;;;6214730;23;20016;-67
2021/05/13 00:54:39;;;;;;;5.80;2.30;;;9.70;95.90;;;;;;6214550;23;20055;-67
2021/05/13 00:57:11;;;;;;;5.53;2.60;;;9.70;95.80;;;;;;6214477;23;20075;-68
2021/05/13 00:59:39;;;;;;;7.03;2.72;;;9.70;95.90;;;;;;6211890;23;20492;-68
2021/05/13 01:02:05;;;;;;;7.80;2.80;;;9.70;95.90;;;;;;6214758;23;19997;-66
2021/05/13 01:04:31;;;;;;;4.63;2.78;;;9.60;95.90;;;;;;6214306;23;20008;-66
2021/05/13 01:06:56;;;;;;;3.45;2.28;;;9.60;95.90;;;;;;6213584;23;20415;-66
2021/05/13 01:09:23;;;;;;;5.03;2.53;;;9.60;95.90;;;;;;6212367;23;20098;-67
2021/05/13 01:11:59;;;;;;;7.90;2.97;;;9.60;96.00;;;;;;6214134;23;20472;-66
2021/05/13 01:17:20;;;;;;;6.03;2.83;;;9.50;95.90;;;;;;6214630;23;20009;-67
2021/05/13 01:19:53;;;;;;;5.00;2.70;;;9.50;95.90;;;;;;6214087;23;20013;-66
2021/05/13 01:22:21;;;;;;;3.22;2.83;;;9.40;95.80;;;;;;6213353;23;20009;-66
2021/05/13 01:24:48;;;;;;;6.25;2.58;;;9.40;96.00;;;;;;6214146;23;20071;-68
2021/05/13 01:27:14;;;;;;;5.95;3.00;;;9.40;95.90;;;;;;6214093;23;20008;-68
2021/05/13 01:29:45;;;;;;;6.68;3.20;;;9.30;95.90;;;;;;6213195;23;20000;-66
2021/05/13 01:32:11;;;;;;;4.73;2.83;;;9.30;95.90;;;;;;6214368;23;20004;-66
2021/05/13 01:34:37;;;;;;;6.97;3.33;;;9.30;95.90;;;;;;6213175;23;20008;-68
2021/05/13 01:37:04;;;;;;;6.93;3.10;;;9.30;96.00;;;;;;6212439;23;20008;-66
2021/05/13 01:39:30;;;;;;;5.43;3.03;;;9.30;96.00;;;;;;6214103;23;20004;-67
2021/05/13 01:41:55;;;;;;;9.02;4.35;;;9.30;96.00;;;;;;6211416;23;20107;-66
2021/05/13 01:44:21;;;;;;;4.35;2.90;;;9.30;96.00;;;;;;6214465;23;20005;-66
2021/05/13 01:46:46;;;;;;;5.60;3.35;;;9.20;96.00;;;;;;6214192;23;20287;-67
2021/05/13 01:49:17;;;;;;;4.53;3.33;;;9.20;96.00;;;;;;6213193;23;20050;-67
2021/05/13 01:51:44;;;;;;;4.30;2.73;;;9.20;96.10;;;;;;6212508;23;20012;-66
2021/05/13 01:54:09;;;;;;;5.70;3.38;;;9.20;96.10;;;;;;6213956;23;20024;-66
2021/05/13 01:56:35;;;;;;;6.10;3.15;;;9.20;96.10;;;;;;6212953;23;20311;-67
2021/05/13 01:59:00;;;;;;;6.03;3.45;;;9.10;96.10;;;;;;6211839;23;20075;-67
2021/05/13 02:01:26;;;;;;;5.43;3.53;;;9.20;96.10;;;;;;6214154;23;20001;-67
2021/05/13 02:03:51;;;;;;;6.95;3.30;;;9.10;96.20;;;;;;6213041;23;19997;-67
2021/05/13 02:06:17;;;;;;;7.45;3.40;;;9.20;96.20;;;;;;6213797;23;20351;-66
2021/05/13 02:08:42;;;;;;;6.45;3.55;;;9.10;96.20;;;;;;6213827;23;20005;-66
2021/05/13 02:11:08;;;;;;;5.72;3.60;;;9.10;96.20;;;;;;6213004;23;20415;-66
2021/05/13 02:13:33;;;;;;;9.77;3.75;;;9.10;96.20;;;;;;6211938;23;20008;-67
2021/05/13 02:15:59;;;;;;;5.82;3.20;;;9.00;96.20;;;;;;6213702;23;20059;-66
2021/05/13 02:18:24;;;;;;;5.70;3.30;;;9.00;96.20;;;;;;6213111;23;20005;-67
2021/05/13 02:20:50;;;;;;;7.05;3.80;;;9.00;96.20;;;;;;6213020;23;20027;-67
2021/05/13 02:23:16;;;;;;;7.53;4.15;;;9.00;96.20;;;;;;6213603;23;20011;-66
2021/05/13 02:25:45;;;;;;;6.63;3.97;;;9.00;96.20;;;;;;6211102;23;20004;-67
2021/05/13 02:28:10;;;;;;;4.68;3.70;;;9.00;96.30;;;;;;6213533;23;20481;-66
2021/05/13 02:30:37;;;;;;;4.63;3.47;;;9.00;96.30;;;;;;6213738;23;20035;-67
2021/05/13 02:33:02;;;;;;;7.45;3.95;;;8.90;96.20;;;;;;6213674;23;19996;-66
2021/05/13 02:35:28;;;;;;;6.18;4.00;;;8.90;96.20;;;;;;6213970;23;19997;-68
2021/05/13 02:37:53;;;;;;;7.30;4.05;;;8.90;96.20;;;;;;6212323;23;20001;-66
2021/05/13 02:40:19;;;;;;;6.07;3.75;;;8.90;96.30;;;;;;6211752;23;20012;-67
2021/05/13 02:42:46;;;;;;;6.05;3.85;;;8.80;96.40;;;;;;6213461;23;20022;-68
2021/05/13 02:45:13;;;;;;;6.97;4.05;;;8.80;96.40;;;;;;6212609;23;20005;-66
2021/05/13 02:47:39;;;;;;;10.27;3.85;;;8.80;96.40;;;;;;6213527;23;20001;-67
2021/05/13 02:50:06;;;;;;;5.20;3.78;;;8.80;96.40;;;;;;6213482;23;20088;-67
2021/05/13 02:52:31;;;;;;;5.57;4.00;;;8.80;96.40;;;;;;6212978;23;20001;-64
2021/05/13 02:54:57;;;;;;;11.15;4.65;;;8.80;96.40;;;;;;6213397;23;20011;-66
2021/05/13 02:57:22;;;;;;;7.38;4.07;;;8.80;96.60;;;;;;6213654;23;20007;-66
2021/05/13 02:59:52;;;;;;;6.22;4.60;;;8.80;96.60;;;;;;6212394;23;20008;-66
2021/05/13 03:02:17;;;;;;;8.30;4.00;;;8.80;96.60;;;;;;6213444;23;20012;-68
2021/05/13 03:04:43;;;;;;;4.93;4.28;;;8.80;96.60;;;;;;6213532;23;20001;-68
2021/05/13 03:07:10;;;;;;;5.72;3.95;;;8.80;96.60;;;;;;6212690;23;20066;-68
2021/05/13 03:09:43;;;;;;;6.90;4.30;;;8.80;96.60;;;;;;6213748;23;19997;-68
2021/05/13 03:12:09;;;;;;;10.52;4.35;;;8.80;96.60;;;;;;6213530;23;20005;-68
2021/05/13 03:14:36;;;;;;;5.97;4.30;;;8.80;96.60;;;;;;6213140;23;20011;-68
2021/05/13 03:17:02;;;;;;;6.22;4.80;;;8.70;96.50;;;;;;6213264;23;20001;-68
2021/05/13 03:19:52;;;;;;;8.98;4.47;;;8.70;96.50;;;;;;6213542;23;20429;-68
2021/05/13 03:22:17;;;;;;;6.85;4.82;;;8.70;96.50;;;;;;6211804;23;20015;-68
2021/05/13 03:24:50;;;;;;;8.82;4.70;;;8.70;96.50;;;;;;6213414;23;20001;-68
2021/05/13 03:27:38;;;;;;;6.75;4.57;;;8.70;96.70;;;;;;6210989;23;20092;-67
2021/05/13 03:30:05;;;;;;;6.05;4.55;;;8.70;96.40;;;;;;6213335;23;20004;-67
2021/05/13 03:32:30;;;;;;;7.78;5.10;;;8.70;96.40;;;;;;6214394;23;20035;-66
2021/05/13 03:34:56;;;;;;;7.55;4.55;;;8.70;96.50;;;;;;6212849;23;20334;-68
2021/05/13 03:37:25;;;;;;;5.57;5.05;;;8.60;96.50;;;;;;6215397;23;20024;-67
2021/05/13 03:39:51;;;;;;;5.50;4.40;;;8.60;96.50;;;;;;6213466;23;20354;-67
2021/05/13 03:42:16;;;;;;;11.25;5.32;;;8.60;96.50;;;;;;6214269;23;20007;-68
2021/05/13 03:44:44;;;;;;;8.95;5.75;;;8.60;96.50;;;;;;6215104;23;20414;-66
2021/05/13 03:47:10;;;;;;;7.65;5.75;;;8.60;96.50;;;;;;6213996;23;20000;-67
2021/05/13 03:49:35;;;;;;;9.40;4.93;;;8.60;96.50;;;;;;6214339;23;20004;-67
2021/05/13 03:52:01;;;;;;;7.63;5.18;;;8.60;96.50;;;;;;6215004;23;20307;-66
2021/05/13 03:54:26;;;;;;;8.05;4.90;;;8.60;96.50;;;;;;6215349;23;20434;-68
2021/05/13 03:56:52;;;;;;;9.25;5.60;;;8.60;96.50;;;;;;6214085;23;19996;-67
2021/05/13 03:59:19;;;;;;;9.60;5.07;;;8.60;96.50;;;;;;6214173;23;20108;-66
2021/05/13 04:04:29;;;;;;;7.85;5.95;;;8.60;96.50;;;;;;6215041;23;20536;-67
2021/05/13 04:06:54;;;;;;;10.48;6.22;;;8.60;96.50;;;;;;6214590;23;20027;-66
2021/05/13 04:09:20;;;;;;;10.65;6.03;;;8.60;96.50;;;;;;6214430;23;20009;-66
2021/05/13 04:11:46;;;;;;;8.93;5.70;;;8.50;96.60;;;;;;6215174;23;20035;-67
2021/05/13 04:14:12;;;;;;;6.50;5.53;;;8.50;96.60;;;;;;6214900;23;20012;-67
2021/05/13 04:16:41;;;;;;;9.93;6.68;;;8.50;96.60;;;;;;6214400;23;20075;-67
2021/05/13 04:19:07;;;;;;;7.32;5.68;;;8.60;96.60;;;;;;6214982;23;20005;-67
2021/05/13 04:21:33;;;;;;;8.25;6.47;;;8.60;96.60;;;;;;6212979;23;20447;-66
2021/05/13 04:23:58;;;;;;;10.25;5.95;;;8.60;96.60;;;;;;6212531;23;20001;-66
2021/05/13 04:26:24;;;;;;;9.45;6.53;;;8.60;96.60;;;;;;6214988;23;20080;-66
2021/05/13 04:28:50;;;;;;;7.30;6.47;;;8.70;96.70;;;;;;6214621;23;20024;-66
2021/05/13 04:31:16;;;;;;;9.30;6.97;;;8.70;96.60;;;;;;6213900;23;20003;-67
2021/05/13 04:33:42;;;;;;;8.43;6.45;;;8.70;96.70;;;;;;6214595;23;20111;-66
2021/05/13 04:36:07;;;;;;;8.43;6.38;;;8.80;96.70;;;;;;6214781;23;20032;-67
2021/05/13 04:38:33;;;;;;;10.68;6.82;;;8.80;96.70;;;;;;6213345;23;20325;-67
2021/05/13 04:40:59;;;;;;;7.45;6.75;;;8.80;96.70;;;;;;6214253;23;20445;-67
2021/05/13 04:43:32;;;;;;;8.52;6.80;;;8.80;96.60;;;;;;6214515;23;20020;-68
2021/05/13 04:45:58;;;;;;;7.85;6.78;;;8.90;96.70;;;;;;6214023;23;20039;-67
2021/05/13 04:48:26;;;;;;;7.65;6.90;;;8.90;96.60;;;;;;6214721;23;19997;-68
2021/05/13 04:50:51;;;;;;;8.25;6.47;;;9.00;96.60;;;;;;6214298;23;20035;-68
2021/05/13 04:53:17;;;;;;;11.05;8.05;;;9.00;96.60;;;;;;6213434;23;19998;-67
2021/05/13 04:55:43;;;;;;;12.55;7.85;;;9.10;96.70;;;;;;6214717;23;20028;-68
2021/05/13 04:58:08;;;;;;;9.27;7.47;;;9.10;96.70;;;;;;6211383;23;20050;-69
2021/05/13 05:00:37;;;;;;;12.73;7.50;;;9.20;96.80;;;;;;6211400;23;20032;-70
2021/05/13 05:03:05;;;;;;;8.43;7.28;;;9.30;96.80;;;;;;6213438;23;20020;-69
2021/05/13 05:05:31;;;;;;;10.02;7.82;;;9.40;96.80;;;;;;6211698;23;20429;-70
2021/05/13 05:07:57;;;;;;;12.70;8.50;;;9.40;96.80;;;;;;6213235;23;20003;-68
2021/05/13 05:10:22;;;;;;;12.68;9.32;;;9.50;96.80;;;;;;6214270;23;20008;-69
2021/05/13 05:12:48;;;;;;;9.82;7.72;;;9.60;96.90;;;;;;6213231;23;20004;-70
2021/05/13 05:15:13;;;;;;;13.73;9.23;;;9.70;96.90;;;;;;6213979;23;20011;-68
2021/05/13 05:17:39;;;;;;;10.07;8.68;;;9.80;96.90;;;;;;6213750;23;20357;-69
2021/05/13 05:20:06;;;;;;;11.50;9.30;;;9.90;96.90;;;;;;6211667;23;20397;-68
2021/05/13 05:22:32;;;;;;;9.88;8.40;;;9.90;96.80;;;;;;6213925;23;20011;-68
2021/05/13 05:24:57;;;;;;;10.15;8.77;;;10.00;96.90;;;;;;6214142;23;20036;-68
2021/05/13 05:27:23;;;;;;;14.45;10.02;;;10.10;96.80;;;;;;6211946;23;20303;-68
2021/05/13 05:29:49;;;;;;;12.98;10.75;;;10.20;96.90;;;;;;6213710;23;20012;-67
2021/05/13 05:32:14;;;;;;;15.18;11.10;;;10.30;96.90;;;;;;6212239;23;20012;-71
2021/05/13 05:34:40;;;;;;;13.70;11.38;;;10.40;97.00;;;;;;6213575;23;20000;-70
2021/05/13 05:37:06;;;;;;;14.35;11.35;;;10.50;97.00;;;;;;6212586;23;20373;-71
2021/05/13 05:39:31;;;;;;;13.38;10.63;;;10.60;97.00;;;;;;6213223;23;20042;-69
2021/05/13 05:41:57;;;;;;;14.50;11.45;;;10.70;97.00;;;;;;6211706;23;20039;-67
2021/05/13 05:44:23;;;;;;;15.85;13.55;;;10.90;97.00;;;;;;6213439;23;20362;-70
2021/05/13 05:46:49;;;;;;;19.33;12.13;;;11.00;97.00;;;;;;6213649;23;20004;-70
2021/05/13 05:49:15;;;;;;;12.57;11.30;;;11.10;97.00;;;;;;6213033;23;20028;-69
2021/05/13 05:51:41;;;;;;;16.40;12.50;;;11.20;97.00;;;;;;6213705;23;20310;-69
2021/05/13 05:54:07;;;;;;;15.35;12.07;;;11.30;97.00;;;;;;6211225;23;20004;-67
2021/05/13 05:56:32;;;;;;;16.00;12.57;;;11.50;97.20;;;;;;6210942;23;20004;-67
2021/05/13 05:59:00;;;;;;;17.33;13.25;;;11.60;96.90;;;;;;6212938;23;20054;-68
2021/05/13 06:01:26;;;;;;;15.98;12.65;;;11.80;96.90;;;;;;6211965;23;20484;-70
2021/05/13 06:03:51;;;;;;;16.27;12.75;;;11.90;96.80;;;;;;6212795;23;20001;-69
2021/05/13 06:06:18;;;;;;;16.27;13.02;;;12.00;96.80;;;;;;6213644;23;20006;-67
2021/05/13 06:08:45;;;;;;;15.75;12.98;;;12.10;96.70;;;;;;6212820;23;19996;-67
2021/05/13 06:11:10;;;;;;;21.85;14.30;;;12.30;96.70;;;;;;6213585;23;20083;-67
2021/05/13 06:13:36;;;;;;;19.25;13.32;;;12.40;96.70;;;;;;6211692;23;20032;-67
2021/05/13 06:16:01;;;;;;;18.85;15.02;;;12.50;96.50;;;;;;6210858;23;20004;-67
2021/05/13 06:18:27;;;;;;;19.08;13.65;;;12.60;96.40;;;;;;6214042;23;19996;-67
2021/05/13 06:20:52;;;;;;;17.05;13.30;;;12.70;96.40;;;;;;6212232;23;20042;-67
2021/05/13 06:23:19;;;;;;;16.48;13.32;;;12.80;96.30;;;;;;6212961;23;20108;-67
2021/05/13 06:25:44;;;;;;;17.27;13.48;;;12.90;96.20;;;;;;6213609;23;20028;-66
2021/05/13 06:28:10;;;;;;;18.75;14.63;;;13.00;96.10;;;;;;6213695;23;19997;-66
2021/05/13 06:30:36;;;;;;;18.35;13.57;;;13.00;95.90;;;;;;6211312;23;20004;-66
2021/05/13 06:33:01;;;;;;;17.38;14.02;;;13.10;95.80;;;;;;6213620;23;20326;-67
2021/05/13 06:35:27;;;;;;;17.83;15.20;;;13.20;95.70;;;;;;6213854;23;20005;-67
2021/05/13 06:37:52;;;;;;;17.83;14.48;;;13.20;95.60;;;;;;6210999;23;20020;-67
2021/05/13 06:40:18;;;;;;;18.13;14.95;;;13.30;95.60;;;;;;6213305;23;20021;-67
2021/05/13 06:42:44;;;;;;;19.98;14.70;;;13.40;95.40;;;;;;6211917;23;20005;-67
2021/05/13 06:45:12;;;;;;;19.77;14.43;;;13.50;95.30;;;;;;6212672;23;20000;-67
2021/05/13 06:47:42;;;;;;;16.75;13.50;;;13.50;95.00;;;;;;6211885;23;20425;-67
2021/05/13 06:50:08;;;;;;;19.25;14.70;;;13.60;94.90;;;;;;6212144;23;20083;-67
2021/05/13 06:52:33;;;;;;;20.40;13.18;;;13.70;94.60;;;;;;6211054;23;20086;-66
2021/05/13 06:54:59;;;;;;;15.10;12.88;;;13.70;94.50;;;;;;6211692;23;20009;-66
2021/05/13 06:57:24;;;;;;;21.88;12.98;;;13.80;94.50;;;;;;6213615;23;20365;-67
2021/05/13 06:59:50;;;;;;;17.80;12.65;;;13.90;94.30;;;;;;6212453;23;20005;-68
2021/05/13 07:02:16;;;;;;;16.42;13.98;;;14.00;94.20;;;;;;6213232;23;20001;-67
2021/05/13 07:04:42;;;;;;;15.52;13.93;;;14.10;94.20;;;;;;6213592;23;20001;-66
2021/05/13 07:07:08;;;;;;;16.20;13.50;;;14.10;94.10;;;;;;6213501;23;20004;-67
2021/05/13 07:09:33;;;;;;;15.45;13.30;;;14.20;94.00;;;;;;6213991;23;20000;-67
2021/05/13 07:11:59;;;;;;;19.92;13.38;;;14.30;94.00;;;;;;6214800;23;20016;-66
2021/05/13 07:14:25;;;;;;;15.13;13.32;;;14.40;93.80;;;;;;6215698;23;20315;-67
2021/05/13 07:16:51;;;;;;;14.57;13.15;;;14.40;93.60;;;;;;6215281;23;20008;-67
2021/05/13 07:19:18;;;;;;;14.80;12.70;;;14.50;93.30;;;;;;6214384;23;20477;-67
2021/05/13 07:21:43;;;;;;;19.23;13.70;;;14.50;93.20;;;;;;6215569;23;20041;-67
2021/05/13 07:24:09;;;;;;;16.48;13.60;;;14.50;92.80;;;;;;6215647;23;20000;-66
2021/05/13 07:26:35;;;;;;;14.30;12.85;;;14.50;92.60;;;;;;6214309;23;20004;-66
2021/05/13 07:29:01;;;;;;;15.95;13.18;;;14.50;92.60;;;;;;6215158;23;20005;-67
2021/05/13 07:31:26;;;;;;;16.25;13.85;;;14.50;92.50;;;;;;6213841;23;20027;-67
2021/05/13 07:33:52;;;;;;;16.05;13.52;;;14.50;92.40;;;;;;6214414;23;20001;-66
2021/05/13 07:36:18;;;;;;;16.92;13.98;;;14.60;92.40;;;;;;6215259;23;20023;-67
2021/05/13 07:38:44;;;;;;;16.83;14.48;;;14.70;92.30;;;;;;6215423;23;20303;-67
2021/05/13 07:41:09;;;;;;;16.30;14.40;;;14.70;92.20;;;;;;6214112;23;20020;-66
2021/05/13 07:43:37;;;;;;;19.73;15.63;;;14.70;92.00;;;;;;6215248;23;20004;-67
2021/05/13 07:46:03;;;;;;;19.20;14.82;;;14.80;91.90;;;;;;6215034;23;20079;-66
2021/05/13 07:48:30;;;;;;;18.67;16.77;;;14.90;91.50;;;;;;6212903;23;20011;-67
2021/05/13 07:50:56;;;;;;;18.77;15.75;;;14.80;90.40;;;;;;6215199;23;20000;-66
2021/05/13 07:53:22;;;;;;;19.00;17.05;;;14.80;90.70;;;;;;6215276;23;20001;-66
2021/05/13 07:55:48;;;;;;;19.38;15.65;;;14.70;90.70;;;;;;6212494;23;20005;-67
2021/05/13 07:58:13;;;;;;;18.77;16.08;;;14.80;90.90;;;;;;6214792;23;19997;-67
2021/05/13 08:00:40;;;;;;;18.95;16.92;;;14.90;91.00;;;;;;6215234;23;20020;-67
2021/05/13 08:03:05;;;;;;;19.92;17.50;;;15.00;91.10;;;;;;6214238;23;20008;-67
2021/05/13 08:05:31;;;;;;;21.02;17.95;;;15.10;90.90;;;;;;6213131;23;20337;-66
2021/05/13 08:07:57;;;;;;;23.10;18.08;;;15.30;90.80;;;;;;6215079;23;20502;-67
2021/05/13 08:10:22;;;;;;;18.08;16.25;;;15.40;90.30;;;;;;6212833;23;20004;-67
2021/05/13 08:12:48;;;;;;;22.73;17.63;;;15.40;90.00;;;;;;6214766;23;20004;-68
2021/05/13 08:15:14;;;;;;;18.20;16.05;;;15.50;89.70;;;;;;6214679;23;20527;-66
2021/05/13 08:17:41;;;;;;;19.13;17.10;;;15.60;89.50;;;;;;6214422;23;20001;-66
2021/05/13 08:20:09;;;;;;;19.98;17.98;;;15.70;88.20;;;;;;6213323;23;20144;-66
2021/05/13 08:22:35;;;;;;;21.13;17.25;;;15.70;87.20;;;;;;6213752;23;20302;-66
2021/05/13 08:25:02;;;;;;;20.65;18.52;;;15.80;87.50;;;;;;6214708;23;20004;-66
2021/05/13 08:27:30;;;;;;;22.90;18.98;;;15.80;86.80;;;;;;6214929;23;20000;-67
2021/05/13 08:29:56;;;;;;;22.40;19.20;;;15.90;85.40;;;;;;6214042;23;20055;-66
2021/05/13 08:32:21;;;;;;;21.27;19.17;;;15.90;84.90;;;;;;6214922;23;20000;-67
2021/05/13 08:34:47;;;;;;;22.27;19.60;;;16.00;84.10;;;;;;6214687;23;20032;-68
2021/05/13 08:37:12;;;;;;;20.85;18.75;;;16.10;83.50;;;;;;6212040;23;20008;-67
2021/05/13 08:39:38;;;;;;;19.10;16.52;;;16.10;83.20;;;;;;6214299;23;20005;-66
2021/05/13 08:42:04;;;;;;;21.52;17.63;;;16.20;83.00;;;;;;6214227;23;20037;-66
2021/05/13 08:44:29;;;;;;;20.17;18.08;;;16.30;83.10;;;;;;6212499;23;20425;-67
2021/05/13 08:46:59;;;;;;;19.77;17.83;;;16.40;81.40;;;;;;6214256;23;20026;-67
2021/05/13 08:49:26;;;;;;;18.67;16.52;;;16.40;80.10;;;;;;6214781;23;20001;-67
2021/05/13 08:51:53;;;;;;;19.45;15.90;;;16.40;80.10;;;;;;6213725;23;20000;-66
2021/05/13 08:54:19;;;;;;;19.65;15.98;;;16.50;79.50;;;;;;6214523;23;20087;-67
2021/05/13 08:56:44;;;;;;;16.98;15.15;;;16.60;78.60;;;;;;6214491;23;20039;-67
2021/05/13 08:59:13;;;;;;;15.02;12.68;;;16.70;78.50;;;;;;6212114;23;20433;-67
2021/05/13 09:02:00;;;;;;;15.57;13.35;;;16.80;78.80;;;;;;6214616;23;20012;-66
2021/05/13 09:04:36;;;;;;;15.25;13.65;;;17.00;79.10;;;;;;6214751;23;19997;-67
2021/05/13 09:07:29;;;;;;;17.45;13.95;;;17.10;78.40;;;;;;6214127;23;20000;-67
2021/05/13 09:10:12;;;;;;;15.30;12.38;;;17.20;77.40;;;;;;6212615;23;20001;-66
2021/05/13 09:12:48;;;;;;;14.88;13.23;;;17.20;76.60;;;;;;6213364;23;20028;-66
2021/05/13 09:15:27;;;;;;;14.77;13.32;;;17.40;76.00;;;;;;6214138;23;20004;-66
2021/05/13 09:18:03;;;;;;;14.25;12.73;;;17.60;75.70;;;;;;6213939;23;20005;-67
2021/05/13 09:20:36;;;;;;;16.50;13.20;;;17.70;75.30;;;;;;6213702;23;20016;-67
2021/05/13 09:23:23;;;;;;;15.27;12.07;;;17.80;74.40;;;;;;6214008;23;20003;-67
2021/05/13 09:26:11;;;;;;;14.15;12.18;;;18.00;74.60;;;;;;6211670;23;20084;-67
2021/05/13 09:28:37;;;;;;;13.77;12.48;;;18.20;74.00;;;;;;6212301;23;20004;-67
2021/05/13 09:31:04;;;;;;;15.80;12.52;;;18.50;72.70;;;;;;6213675;23;20059;-67
2021/05/13 09:33:38;;;;;;;16.42;12.77;;;18.50;70.70;;;;;;6213510;23;20005;-67
2021/05/13 09:36:23;;;;;;;14.15;12.05;;;18.60;71.20;;;;;;6214387;23;20001;-67
2021/05/13 09:38:49;;;;;;;13.98;11.98;;;18.70;71.80;;;;;;6214129;23;20004;-67
2021/05/13 09:41:35;;;;;;;14.60;10.65;;;18.90;71.50;;;;;;6212769;23;20119;-67
2021/05/13 09:44:01;;;;;;;13.55;12.10;;;19.10;70.30;;;;;;6214242;23;20011;-67
2021/05/13 09:46:37;;;;;;;13.10;11.80;;;19.20;69.10;;;;;;6214530;23;20015;-67
2021/05/13 09:49:03;;;;;;;11.43;9.82;;;19.30;69.30;;;;;;6213024;23;20054;-68
2021/05/13 09:51:39;;;;;;;11.38;9.68;;;19.40;67.90;;;;;;6214317;23;20019;-67
2021/05/13 09:54:12;;;;;;;10.48;8.63;;;19.60;67.10;;;;;;6212812;23;20015;-67
2021/05/13 09:56:44;;;;;;;9.88;7.72;;;19.70;66.50;;;;;;6213837;23;20455;-68
2021/05/13 09:59:20;;;;;;;13.68;8.13;;;19.80;66.10;;;;;;6213712;23;20007;-68
2021/05/13 10:01:45;;;;;;;8.57;6.68;;;20.00;65.00;;;;;;6212978;23;20012;-68
2021/05/13 10:04:11;;;;;;;9.73;5.97;;;20.10;63.90;;;;;;6213752;23;20023;-68
2021/05/13 10:06:36;;;;;;;10.40;6.25;;;20.30;62.20;;;;;;6213556;23;20008;-68
2021/05/13 10:09:03;;;;;;;10.65;8.63;;;20.50;61.00;;;;;;6211239;23;20003;-68
2021/05/13 10:11:30;;;;;;;12.50;8.20;;;20.60;61.20;;;;;;6213968;23;20544;-66
2021/05/13 10:13:56;;;;;;;9.80;8.00;;;20.70;62.00;;;;;;6213774;23;20000;-68
2021/05/13 10:16:22;;;;;;;11.60;8.63;;;20.90;61.20;;;;;;6213003;23;20007;-67
2021/05/13 10:18:54;;;;;;;13.27;7.90;;;21.00;58.40;;;;;;6213654;23;20009;-67
2021/05/13 10:21:25;;;;;;;9.90;6.10;;;21.10;59.00;;;;;;6213812;23;20066;-68
2021/05/13 10:23:54;;;;;;;9.30;5.68;;;21.20;58.80;;;;;;6212585;23;20007;-68
2021/05/13 10:26:39;;;;;;;8.48;5.28;;;21.30;57.30;;;;;;6213362;23;20052;-68
2021/05/13 10:29:26;;;;;;;8.48;5.35;;;21.40;58.10;;;;;;6213034;23;20123;-68
2021/05/13 10:32:01;;;;;;;4.50;3.20;;;21.60;56.90;;;;;;6213644;23;20083;-68
2021/05/13 10:34:44;;;;;;;5.10;3.03;;;21.60;55.30;;;;;;6213609;23;19996;-67
2021/05/13 10:37:27;;;;;;;5.70;2.97;;;21.80;54.20;;;;;;6212654;23;20456;-67
2021/05/13 10:40:08;;;;;;;5.32;3.08;;;21.80;53.50;;;;;;6212998;23;20012;-68
2021/05/13 10:42:36;;;;;;;7.82;2.97;;;21.80;52.10;;;;;;6212895;23;20033;-68
2021/05/13 10:45:24;;;;;;;5.55;3.40;;;21.70;52.00;;;;;;6212488;23;20039;-69
2021/05/13 10:48:14;;;;;;;7.32;2.70;;;21.70;53.10;;;;;;6213260;23;20028;-67
2021/05/13 10:51:01;;;;;;;4.28;2.83;;;21.80;51.90;;;;;;6212488;23;20001;-68
2021/05/13 10:53:36;;;;;;;7.63;3.05;;;22.00;52.30;;;;;;6213436;23;20004;-68
2021/05/13 10:56:30;;;;;;;6.57;2.30;;;22.10;52.10;;;;;;6213312;23;20000;-68
2021/05/13 10:58:59;;;;;;;7.25;3.25;;;22.20;50.20;;;;;;6210413;23;20004;-67
2021/05/13 11:01:49;;;;;;;4.80;3.05;;;22.20;49.00;;;;;;6213491;23;20047;-67
2021/05/13 11:04:20;;;;;;;5.75;3.40;;;22.10;49.30;;;;;;6212368;23;20000;-67
2021/05/13 11:07:06;;;;;;;6.15;3.70;;;22.10;50.40;;;;;;6211495;23;20502;-67
2021/05/13 11:09:38;;;;;;;7.22;4.45;;;22.20;49.60;;;;;;6213078;23;20429;-66
2021/05/13 11:12:10;;;;;;;7.47;4.60;;;22.20;50.50;;;;;;6212073;23;20004;-67
2021/05/13 11:15:01;;;;;;;6.57;4.22;;;22.20;52.00;;;;;;6212832;23;20001;-68
2021/05/13 11:17:58;;;;;;;5.85;4.25;;;22.30;52.20;;;;;;6213253;23;20001;-68
2021/05/13 11:20:23;;;;;;;7.40;4.25;;;22.50;52.00;;;;;;6170790;23;20037;-67
2021/05/13 11:22:59;;;;;;;5.95;4.07;;;22.60;49.50;;;;;;6211856;23;20008;-67
2021/05/13 11:25:46;;;;;;;7.50;4.90;;;22.60;50.20;;;;;;6212665;23;20001;-68
2021/05/13 11:28:26;;;;;;;7.07;3.72;;;22.80;50.80;;;;;;6213111;23;20335;-67
2021/05/13 11:31:08;;;;;;;7.10;3.60;;;22.90;50.70;;;;;;6211382;23;20009;-68
2021/05/13 11:33:43;;;;;;;8.32;4.55;;;23.10;51.20;;;;;;6212250;23;20012;-68
2021/05/13 11:36:11;;;;;;;7.85;4.82;;;23.30;49.10;;;;;;6213096;23;20079;-68
2021/05/13 11:38:37;;;;;;;8.88;6.28;;;23.30;50.00;;;;;;6212694;23;20430;-67
2021/05/13 11:41:04;;;;;;;8.20;5.80;;;23.10;50.60;;;;;;6211948;23;20342;-68
2021/05/13 11:43:35;;;;;;;7.10;6.18;;;22.70;50.40;;;;;;6213324;23;20011;-68
2021/05/13 11:46:05;;;;;;;10.75;6.03;;;22.40;50.90;;;;;;6213181;23;20403;-68
2021/05/13 11:48:32;;;;;;;8.63;5.78;;;22.00;51.40;;;;;;6212075;23;20008;-68
2021/05/13 11:51:07;;;;;;;9.55;4.80;;;21.70;52.50;;;;;;6212915;23;20038;-68
2021/05/13 11:53:34;;;;;;;9.00;5.10;;;21.50;53.00;;;;;;6213445;23;20004;-69
2021/05/13 11:56:00;;;;;;;8.15;4.70;;;21.50;51.80;;;;;;6214782;23;20032;-68
2021/05/13 11:58:45;;;;;;;9.32;4.95;;;21.30;53.10;;;;;;6215280;23;19996;-68
2021/05/13 12:01:22;;;;;;;6.28;4.78;;;21.30;52.80;;;;;;6213710;23;20019;-68
2021/05/13 12:04:09;;;;;;;5.45;4.00;;;21.20;53.00;;;;;;6214884;23;20086;-69
2021/05/13 12:06:58;;;;;;;8.80;5.43;;;21.20;53.80;;;;;;6212049;23;20369;-68
2021/05/13 12:09:24;;;;;;;7.50;4.95;;;21.10;52.60;;;;;;6213620;23;20444;-67
2021/05/13 12:11:52;;;;;;;10.85;5.25;;;20.80;53.20;;;;;;6214674;23;20863;-67
2021/05/13 12:14:28;;;;;;;7.90;5.43;;;20.60;53.60;;;;;;6214371;23;20001;-67
2021/05/13 12:17:02;;;;;;;6.88;5.22;;;20.30;53.60;;;;;;6212855;23;20004;-67
2021/05/13 12:19:32;;;;;;;8.00;5.18;;;20.10;54.40;;;;;;6213393;23;20000;-69
2021/05/13 12:22:03;;;;;;;6.70;4.85;;;19.90;54.80;;;;;;6213989;23;20001;-68
2021/05/13 12:24:33;;;;;;;9.30;5.05;;;19.70;55.90;;;;;;6214741;23;20426;-68
2021/05/13 12:27:00;;;;;;;10.50;5.63;;;19.70;56.10;;;;;;6212757;23;20011;-66
2021/05/13 12:29:26;;;;;;;9.93;4.72;;;19.80;55.90;;;;;;6213992;23;20028;-68
2021/05/13 12:31:53;;;;;;;7.72;5.03;;;19.90;55.80;;;;;;6214340;23;20080;-67
2021/05/13 12:34:35;;;;;;;5.50;4.63;;;20.00;55.60;;;;;;6212553;23;20492;-67
2021/05/13 12:37:03;;;;;;;9.70;4.68;;;20.30;54.70;;;;;;6212084;23;20008;-67
2021/05/13 12:39:36;;;;;;;8.10;4.30;;;20.30;54.50;;;;;;6214330;23;20023;-67
2021/05/13 12:42:04;;;;;;;7.22;5.88;;;20.50;54.90;;;;;;6214361;23;20013;-68
2021/05/13 12:44:34;;;;;;;9.43;5.32;;;20.60;53.70;;;;;;6212324;23;20055;-68
2021/05/13 12:47:02;;;;;;;8.82;5.50;;;20.60;53.20;;;;;;6214376;23;20008;-68
2021/05/13 12:49:30;;;;;;;9.40;4.65;;;20.50;53.70;;;;;;6212950;23;20003;-68
2021/05/13 12:51:59;;;;;;;6.22;4.30;;;20.60;54.00;;;;;;6213501;23;20008;-69
2021/05/13 12:54:24;;;;;;;8.70;4.90;;;20.60;53.60;;;;;;6212862;23;20135;-68
2021/05/13 12:56:50;;;;;;;9.85;5.07;;;20.40;53.90;;;;;;6213345;23;20601;-69